Time;durP1;ratioP1;P1;durP2;ratioP2;P2;SDS_P1;SDS_P2;PMS_P1;PMS_P2;Temp;Humidity;BMP_temperature;BMP_pressure;BME280_temperature;BME280_humidity;BME280_pressure;Samples;Min_cycle;Max_cycle;Signal;HPM_P1;HPM_P2
2021/08/09 00:01:32;;;;;;;20.05;6.25;;;13.60;99.90;;;;;;5091209;28;20031;-79
2021/08/09 00:03:58;;;;;;;27.88;5.82;;;13.50;99.90;;;;;;5090473;28;20024;-79
2021/08/09 00:06:23;;;;;;;19.60;5.22;;;13.50;99.90;;;;;;5092141;28;20020;-80
2021/08/09 00:08:50;;;;;;;29.35;6.40;;;13.40;99.90;;;;;;5091216;28;20093;-79
2021/08/09 00:11:15;;;;;;;18.27;5.50;;;13.40;99.90;;;;;;5092406;28;20059;-79
2021/08/09 00:13:41;;;;;;;11.93;4.65;;;13.40;99.90;;;;;;5092256;28;20060;-79
2021/08/09 00:16:06;;;;;;;22.40;6.22;;;13.40;99.90;;;;;;5090608;28;20028;-79
2021/08/09 00:18:32;;;;;;;23.02;5.63;;;13.40;99.90;;;;;;5091089;28;20074;-79
2021/08/09 00:20:58;;;;;;;15.95;5.00;;;13.50;99.90;;;;;;5091069;28;20443;-80
2021/08/09 00:23:24;;;;;;;16.00;5.95;;;13.50;99.90;;;;;;5091048;28;20016;-79
2021/08/09 00:25:50;;;;;;;27.45;5.78;;;13.70;99.90;;;;;;5091457;28;20036;-80
2021/08/09 00:28:15;;;;;;;20.00;4.85;;;13.70;99.90;;;;;;5090946;28;20096;-79
2021/08/09 00:30:41;;;;;;;17.52;5.32;;;13.70;99.90;;;;;;5090793;28;20130;-79
2021/08/09 00:33:07;;;;;;;7.72;4.00;;;13.70;99.90;;;;;;5090356;28;20028;-79
2021/08/09 00:35:32;;;;;;;13.00;4.18;;;13.90;99.90;;;;;;5091411;28;20081;-79
2021/08/09 00:37:58;;;;;;;15.57;4.60;;;13.90;99.90;;;;;;5091976;28;20035;-79
2021/08/09 00:40:24;;;;;;;12.85;4.47;;;14.10;99.90;;;;;;5091948;28;20361;-80
2021/08/09 00:42:49;;;;;;;10.60;4.25;;;14.20;99.90;;;;;;5092031;28;20516;-79
2021/08/09 00:45:15;;;;;;;21.10;5.15;;;14.30;99.90;;;;;;5091710;28;20388;-80
2021/08/09 00:47:41;;;;;;;15.75;4.88;;;14.30;99.90;;;;;;5091591;28;20422;-79
2021/08/09 00:50:07;;;;;;;19.00;4.85;;;14.40;99.90;;;;;;5091972;28;20046;-79
2021/08/09 00:52:33;;;;;;;14.73;3.83;;;14.30;99.90;;;;;;5091951;28;20028;-79
2021/08/09 00:54:58;;;;;;;11.98;4.57;;;14.40;99.90;;;;;;5091536;28;20081;-79
2021/08/09 00:57:24;;;;;;;14.10;4.70;;;14.40;99.90;;;;;;5091449;28;20036;-78
2021/08/09 00:59:50;;;;;;;14.25;4.53;;;14.40;99.90;;;;;;5090527;28;20025;-78
2021/08/09 01:02:16;;;;;;;10.82;4.22;;;14.40;99.90;;;;;;5090495;28;20024;-79
2021/08/09 01:04:41;;;;;;;10.32;4.00;;;14.50;99.90;;;;;;5090256;28;20360;-78
2021/08/09 01:07:08;;;;;;;10.05;4.43;;;14.40;99.90;;;;;;5090164;28;20020;-78
2021/08/09 01:09:53;;;;;;;12.57;4.72;;;14.40;99.90;;;;;;5091618;28;20433;-78
2021/08/09 01:12:24;;;;;;;11.07;4.78;;;14.40;99.90;;;;;;5090244;28;20028;-78
2021/08/09 01:15:04;;;;;;;11.10;4.40;;;14.40;99.90;;;;;;5090009;28;20070;-78
2021/08/09 01:17:34;;;;;;;15.63;4.93;;;14.40;99.90;;;;;;5091307;28;20645;-79
2021/08/09 01:20:23;;;;;;;20.15;4.93;;;14.40;99.90;;;;;;5090436;28;20024;-78
2021/08/09 01:23:20;;;;;;;13.18;4.65;;;14.40;99.90;;;;;;5079419;28;20123;-79
2021/08/09 01:25:53;;;;;;;9.77;4.57;;;14.40;99.90;;;;;;5091239;28;20032;-79
2021/08/09 01:28:21;;;;;;;12.68;5.00;;;14.40;99.90;;;;;;5091327;28;20089;-79
2021/08/09 01:30:48;;;;;;;17.35;4.75;;;14.40;99.90;;;;;;5091517;28;20081;-80
2021/08/09 01:33:15;;;;;;;12.40;4.78;;;14.40;99.90;;;;;;5091451;28;20110;-79
2021/08/09 01:35:42;;;;;;;14.10;4.45;;;14.30;99.90;;;;;;5089817;28;20067;-79
2021/08/09 01:38:08;;;;;;;12.07;4.38;;;14.40;99.90;;;;;;5091143;28;20043;-79
2021/08/09 01:40:35;;;;;;;12.27;4.38;;;14.40;99.90;;;;;;5090228;28;20020;-79
2021/08/09 01:43:01;;;;;;;10.90;3.88;;;14.40;99.90;;;;;;5091285;28;20027;-80
2021/08/09 01:45:27;;;;;;;16.55;4.50;;;14.40;99.90;;;;;;5093651;28;20084;-80
2021/08/09 01:47:54;;;;;;;13.77;4.70;;;14.40;99.90;;;;;;5093559;28;20024;-80
2021/08/09 01:50:21;;;;;;;18.35;5.15;;;14.40;99.90;;;;;;5093889;28;20058;-80
2021/08/09 01:52:47;;;;;;;17.60;5.28;;;14.40;99.90;;;;;;5095087;28;20032;-80
2021/08/09 01:55:15;;;;;;;12.35;4.47;;;14.30;99.90;;;;;;5093460;28;20024;-80
2021/08/09 01:57:41;;;;;;;12.90;5.95;;;14.20;99.90;;;;;;5093560;28;20039;-79
2021/08/09 02:00:10;;;;;;;26.00;6.03;;;14.20;99.90;;;;;;5092705;28;20560;-79
2021/08/09 02:02:36;;;;;;;19.92;6.57;;;14.10;99.90;;;;;;5094803;28;20016;-80
2021/08/09 02:05:19;;;;;;;20.48;6.00;;;14.10;99.90;;;;;;5094551;28;20027;-79
2021/08/09 02:07:47;;;;;;;20.67;6.65;;;14.00;99.90;;;;;;5093572;28;20024;-80
2021/08/09 02:10:32;;;;;;;21.45;6.18;;;14.00;99.90;;;;;;5094458;28;20103;-80
2021/08/09 02:13:47;;;;;;;19.67;6.45;;;13.90;99.90;;;;;;5094774;28;20032;-79
2021/08/09 02:16:15;;;;;;;;;;;14.00;99.90;;;;;;5083861;28;20480;-80
2021/08/09 02:18:58;;;;;;;16.70;7.72;;;14.00;99.90;;;;;;5092927;28;20279;-79
2021/08/09 02:21:28;;;;;;;15.82;6.47;;;14.10;99.90;;;;;;5094608;28;20058;-80
2021/08/09 02:24:08;;;;;;;18.80;6.57;;;14.10;99.90;;;;;;5094246;28;20047;-79
2021/08/09 02:26:45;;;;;;;13.18;5.78;;;14.20;99.90;;;;;;5094425;28;20103;-79
2021/08/09 02:29:14;;;;;;;13.77;6.20;;;14.20;99.90;;;;;;5092871;28;20032;-79
2021/08/09 02:31:43;;;;;;;16.98;6.95;;;14.20;99.90;;;;;;5093249;28;20055;-80
2021/08/09 02:34:11;;;;;;;16.17;6.35;;;14.30;99.90;;;;;;5094025;28;20442;-79
2021/08/09 02:36:37;;;;;;;22.05;7.78;;;14.30;99.90;;;;;;5092505;28;20024;-79
2021/08/09 02:39:03;;;;;;;16.30;6.05;;;14.40;99.90;;;;;;5094173;28;20025;-79
2021/08/09 02:41:30;;;;;;;32.88;7.43;;;14.40;99.90;;;;;;5092821;28;20157;-80
2021/08/09 02:43:55;;;;;;;13.50;6.13;;;14.40;99.90;;;;;;5093831;28;20048;-80
2021/08/09 02:46:22;;;;;;;18.45;6.72;;;14.40;99.90;;;;;;5093216;28;20488;-80
2021/08/09 02:48:48;;;;;;;19.20;7.38;;;14.50;99.90;;;;;;5094115;28;20020;-81
2021/08/09 02:51:19;;;;;;;18.23;6.25;;;14.50;99.90;;;;;;5093997;28;20020;-80
2021/08/09 02:53:46;;;;;;;30.33;7.70;;;14.50;99.90;;;;;;5093666;28;20024;-80
2021/08/09 02:56:12;;;;;;;29.98;6.85;;;14.60;99.90;;;;;;5091703;28;20028;-80
2021/08/09 02:58:38;;;;;;;18.80;6.50;;;14.60;99.90;;;;;;5073618;28;20082;-80
2021/08/09 03:01:03;;;;;;;26.85;7.85;;;14.70;99.90;;;;;;5074320;28;20052;-80
2021/08/09 03:03:31;;;;;;;31.17;7.82;;;14.70;99.90;;;;;;5092420;28;20025;-80
2021/08/09 03:05:59;;;;;;;26.27;7.80;;;14.70;99.90;;;;;;5092152;28;20028;-80
2021/08/09 03:08:26;;;;;;;52.28;8.95;;;14.70;99.90;;;;;;5092030;28;20046;-80
2021/08/09 03:10:52;;;;;;;37.45;8.25;;;14.90;99.90;;;;;;5093403;28;20024;-80
2021/08/09 03:13:25;;;;;;;39.00;8.77;;;14.90;99.90;;;;;;5093446;28;20036;-81
2021/08/09 03:15:52;;;;;;;41.08;8.75;;;15.00;99.90;;;;;;5091905;28;20494;-79
2021/08/09 03:18:18;;;;;;;39.65;10.25;;;15.10;99.90;;;;;;5091814;28;20039;-80
2021/08/09 03:20:43;;;;;;;29.02;7.68;;;15.10;99.90;;;;;;5092084;28;20020;-79
2021/08/09 03:23:09;;;;;;;32.10;8.13;;;15.10;99.90;;;;;;5093385;28;20372;-80
2021/08/09 03:25:36;;;;;;;42.95;7.97;;;15.20;99.90;;;;;;5092931;28;20028;-80
2021/08/09 03:28:02;;;;;;;30.95;8.18;;;15.20;99.90;;;;;;5091626;28;20024;-80
2021/08/09 03:30:28;;;;;;;36.45;8.07;;;15.20;99.90;;;;;;5093184;28;20016;-80
2021/08/09 03:32:54;;;;;;;27.25;6.95;;;15.20;99.90;;;;;;5091871;28;20035;-80
2021/08/09 03:35:21;;;;;;;32.35;8.48;;;15.20;99.90;;;;;;5091489;28;20502;-80
2021/08/09 03:37:46;;;;;;;35.55;8.75;;;15.20;99.90;;;;;;5092695;28;20468;-79
2021/08/09 03:40:12;;;;;;;44.10;8.07;;;15.20;99.90;;;;;;5091675;28;20020;-80
2021/08/09 03:42:38;;;;;;;39.72;10.07;;;15.30;99.90;;;;;;5091790;28;20085;-80
2021/08/09 03:45:05;;;;;;;35.65;8.10;;;15.30;99.90;;;;;;5092599;28;20404;-80
2021/08/09 03:47:31;;;;;;;30.42;6.95;;;15.30;99.90;;;;;;5092951;28;20024;-80
2021/08/09 03:49:56;;;;;;;36.70;8.43;;;15.40;99.90;;;;;;5092510;28;20058;-79
2021/08/09 03:52:22;;;;;;;26.55;6.70;;;15.30;99.90;;;;;;5091569;28;20028;-80
2021/08/09 03:54:47;;;;;;;28.58;7.07;;;15.40;99.90;;;;;;5091066;28;20480;-79
2021/08/09 03:57:13;;;;;;;32.65;7.05;;;15.40;99.90;;;;;;5092667;28;20036;-80
2021/08/09 03:59:38;;;;;;;39.83;8.32;;;15.40;99.90;;;;;;5092310;28;20063;-80
2021/08/09 04:02:04;;;;;;;43.00;7.80;;;15.40;99.90;;;;;;5091379;28;20027;-79
2021/08/09 04:04:29;;;;;;;38.72;7.40;;;15.40;99.90;;;;;;5091060;28;20391;-80
2021/08/09 04:06:55;;;;;;;34.28;7.47;;;15.40;99.90;;;;;;5091650;28;20028;-81
2021/08/09 04:09:20;;;;;;;32.25;7.18;;;15.50;99.90;;;;;;5092063;28;20028;-80
2021/08/09 04:11:46;;;;;;;26.60;7.50;;;15.40;99.90;;;;;;5091199;28;20024;-80
2021/08/09 04:14:12;;;;;;;21.10;7.00;;;15.40;99.90;;;;;;5090817;28;20024;-80
2021/08/09 04:16:37;;;;;;;25.92;7.45;;;15.40;99.90;;;;;;5092331;28;20043;-80
2021/08/09 04:19:03;;;;;;;23.02;7.07;;;15.40;99.90;;;;;;5090804;28;20111;-80
2021/08/09 04:21:28;;;;;;;28.25;6.53;;;15.40;99.90;;;;;;5090652;28;20495;-80
2021/08/09 04:23:54;;;;;;;41.40;7.00;;;15.40;99.90;;;;;;5090682;28;20105;-81
2021/08/09 04:26:20;;;;;;;22.60;7.70;;;15.40;99.90;;;;;;5092233;28;20039;-79
2021/08/09 04:28:46;;;;;;;35.20;7.50;;;15.30;99.90;;;;;;5091050;28;20028;-81
2021/08/09 04:31:12;;;;;;;28.08;7.30;;;15.30;99.90;;;;;;5091891;28;20035;-82
2021/08/09 04:33:42;;;;;;;23.02;7.35;;;15.30;99.90;;;;;;5090767;28;20020;-81
2021/08/09 04:36:08;;;;;;;24.52;7.95;;;15.30;99.90;;;;;;5091885;28;20081;-82
2021/08/09 04:38:34;;;;;;;25.73;8.00;;;15.20;99.90;;;;;;5092035;28;20027;-80
2021/08/09 04:40:59;;;;;;;22.33;7.22;;;15.20;99.90;;;;;;5090490;28;20020;-80
2021/08/09 04:43:25;;;;;;;31.77;7.97;;;15.10;99.90;;;;;;5091990;28;20024;-80
2021/08/09 04:45:50;;;;;;;37.85;7.43;;;15.20;99.90;;;;;;5091695;28;20046;-80
2021/08/09 04:48:16;;;;;;;31.98;8.20;;;15.20;99.90;;;;;;5090691;28;20154;-80
2021/08/09 04:50:41;;;;;;;28.50;8.15;;;15.10;99.90;;;;;;5091625;28;20028;-81
2021/08/09 04:53:09;;;;;;;36.30;9.27;;;15.10;99.90;;;;;;5091958;28;20028;-80
2021/08/09 04:55:35;;;;;;;28.13;8.60;;;15.10;99.90;;;;;;5091365;28;20492;-81
2021/08/09 04:58:00;;;;;;;35.40;8.77;;;15.10;99.90;;;;;;5090545;28;20080;-81
2021/08/09 05:00:26;;;;;;;30.40;9.75;;;15.20;99.90;;;;;;5091561;28;20085;-81
2021/08/09 05:02:51;;;;;;;32.13;10.43;;;15.20;99.90;;;;;;5090506;28;20103;-80
2021/08/09 05:05:17;;;;;;;32.80;10.68;;;15.10;99.90;;;;;;5090093;28;20106;-79
2021/08/09 05:07:42;;;;;;;27.35;10.40;;;15.10;99.90;;;;;;5091868;28;20074;-79
2021/08/09 05:10:09;;;;;;;36.08;12.15;;;15.00;99.90;;;;;;5090320;28;20031;-80
2021/08/09 05:12:34;;;;;;;30.98;12.40;;;15.10;99.90;;;;;;5090172;28;20024;-79
2021/08/09 05:15:01;;;;;;;31.65;11.68;;;15.10;99.90;;;;;;5090149;28;20388;-80
2021/08/09 05:17:26;;;;;;;36.20;12.07;;;15.10;99.90;;;;;;5091949;28;20490;-80
2021/08/09 05:19:53;;;;;;;31.17;10.52;;;15.10;99.90;;;;;;5095722;28;20020;-79
2021/08/09 05:22:18;;;;;;;37.38;11.10;;;15.00;99.90;;;;;;5095337;28;20050;-79
2021/08/09 05:24:45;;;;;;;45.58;11.60;;;15.10;99.90;;;;;;5094961;28;20028;-79
2021/08/09 05:27:11;;;;;;;22.92;9.63;;;15.10;99.90;;;;;;5095517;28;20031;-79
2021/08/09 05:29:36;;;;;;;39.72;11.02;;;15.10;99.90;;;;;;5094289;28;20024;-79
2021/08/09 05:32:04;;;;;;;37.58;10.98;;;15.10;99.90;;;;;;5094137;28;20056;-79
2021/08/09 05:34:31;;;;;;;27.92;10.43;;;15.10;99.90;;;;;;5094722;28;20026;-79
2021/08/09 05:36:56;;;;;;;37.08;10.57;;;15.10;99.90;;;;;;5094098;28;20544;-79
2021/08/09 05:39:22;;;;;;;36.13;10.80;;;15.10;99.90;;;;;;5095340;28;20111;-79
2021/08/09 05:41:48;;;;;;;43.67;10.80;;;15.10;99.90;;;;;;5094030;28;20109;-80
2021/08/09 05:44:13;;;;;;;37.63;12.35;;;15.10;99.90;;;;;;5094695;28;20016;-79
2021/08/09 05:46:39;;;;;;;31.58;10.38;;;15.20;99.90;;;;;;5093892;28;20059;-80
2021/08/09 05:49:05;;;;;;;41.58;12.23;;;15.20;99.90;;;;;;5093926;28;20020;-78
2021/08/09 05:51:30;;;;;;;30.50;10.43;;;15.10;99.90;;;;;;5093891;28;20020;-78
2021/08/09 05:53:56;;;;;;;29.23;9.98;;;15.20;99.90;;;;;;5094502;28;20028;-79
2021/08/09 05:56:21;;;;;;;34.35;11.38;;;15.20;99.90;;;;;;5094950;28;20036;-79
2021/08/09 05:58:47;;;;;;;34.22;11.80;;;15.10;99.90;;;;;;5095009;28;20024;-79
2021/08/09 06:01:12;;;;;;;28.60;11.98;;;15.20;99.90;;;;;;5092328;28;20027;-80
2021/08/09 06:03:41;;;;;;;32.13;10.13;;;15.20;99.90;;;;;;5093133;28;20020;-79
2021/08/09 06:06:06;;;;;;;41.05;11.18;;;15.10;99.90;;;;;;5092889;28;20031;-79
2021/08/09 06:08:32;;;;;;;43.03;10.45;;;15.10;99.90;;;;;;5094602;28;20476;-79
2021/08/09 06:10:57;;;;;;;33.95;11.15;;;15.10;99.90;;;;;;5094381;28;20043;-79
2021/08/09 06:13:23;;;;;;;40.03;10.15;;;15.10;99.90;;;;;;5094471;28;20024;-81
2021/08/09 06:15:48;;;;;;;35.53;11.40;;;15.10;99.90;;;;;;5093884;28;20036;-79
2021/08/09 06:18:14;;;;;;;27.15;9.00;;;15.10;99.90;;;;;;5093118;28;20069;-79
2021/08/09 06:20:40;;;;;;;28.02;9.20;;;15.30;99.90;;;;;;5094404;28;20034;-79
2021/08/09 06:23:05;;;;;;;30.27;9.00;;;15.20;99.90;;;;;;5094351;28;20146;-81
2021/08/09 06:25:31;;;;;;;18.30;7.65;;;15.20;99.90;;;;;;5092149;28;20023;-80
2021/08/09 06:27:56;;;;;;;21.00;8.50;;;15.10;99.90;;;;;;5092973;28;20511;-79
2021/08/09 06:30:23;;;;;;;33.38;7.72;;;15.20;99.90;;;;;;5092180;28;20127;-79
2021/08/09 06:32:49;;;;;;;18.77;7.65;;;15.20;99.90;;;;;;5094226;28;20116;-80
2021/08/09 06:35:14;;;;;;;28.02;7.65;;;15.30;99.90;;;;;;5093957;28;20035;-79
2021/08/09 06:37:41;;;;;;;40.70;8.02;;;15.20;99.90;;;;;;5093848;28;20713;-79
2021/08/09 06:40:07;;;;;;;26.25;7.03;;;15.20;99.90;;;;;;5092707;28;20020;-79
2021/08/09 06:42:33;;;;;;;25.15;7.40;;;15.20;99.90;;;;;;5094108;28;20596;-79
2021/08/09 06:44:58;;;;;;;34.38;9.52;;;15.20;99.90;;;;;;5092404;28;20028;-79
2021/08/09 06:47:26;;;;;;;26.75;9.13;;;15.30;99.90;;;;;;5093623;28;20038;-78
2021/08/09 06:49:52;;;;;;;25.70;9.80;;;15.40;99.90;;;;;;5092770;28;20479;-79
2021/08/09 06:52:19;;;;;;;35.50;10.32;;;15.50;99.90;;;;;;5092573;28;20119;-79
2021/08/09 06:54:45;;;;;;;31.90;10.18;;;15.50;99.90;;;;;;5093451;28;20107;-78
2021/08/09 06:57:12;;;;;;;40.80;11.52;;;15.60;99.90;;;;;;5093375;28;20020;-79
2021/08/09 06:59:37;;;;;;;31.13;10.98;;;15.60;99.90;;;;;;5093721;28;20386;-79
2021/08/09 07:02:04;;;;;;;32.83;10.90;;;15.70;99.90;;;;;;5093704;28;20035;-79
2021/08/09 07:04:29;;;;;;;32.83;11.30;;;15.80;99.90;;;;;;5093283;28;20031;-79
2021/08/09 07:06:55;;;;;;;33.22;11.90;;;15.90;99.90;;;;;;5092081;28;20028;-80
2021/08/09 07:09:21;;;;;;;37.03;12.07;;;16.10;99.90;;;;;;5091528;28;20020;-79
2021/08/09 07:11:46;;;;;;;39.60;12.13;;;16.20;99.90;;;;;;5093628;28;20069;-79
2021/08/09 07:14:12;;;;;;;42.10;11.77;;;16.30;99.90;;;;;;5093032;28;20024;-78
2021/08/09 07:16:38;;;;;;;47.75;11.00;;;16.50;99.90;;;;;;5092121;28;20097;-79
2021/08/09 07:19:04;;;;;;;40.80;11.40;;;16.70;99.90;;;;;;5093029;28;20028;-79
2021/08/09 07:21:29;;;;;;;41.85;11.38;;;16.80;99.90;;;;;;5092931;28;20373;-78
2021/08/09 07:23:55;;;;;;;46.67;9.90;;;16.90;99.90;;;;;;5085600;28;20428;-80
2021/08/09 07:26:20;;;;;;;33.53;9.27;;;17.00;99.90;;;;;;5088618;28;20447;-80
2021/08/09 07:28:46;;;;;;;46.40;9.55;;;17.00;99.90;;;;;;5089309;28;20028;-80
2021/08/09 07:31:11;;;;;;;33.33;9.05;;;17.00;99.90;;;;;;5089222;28;20016;-81
2021/08/09 07:33:38;;;;;;;32.25;8.35;;;16.90;99.90;;;;;;5089169;28;20031;-81
2021/08/09 07:36:05;;;;;;;29.25;7.53;;;16.90;99.90;;;;;;5088435;28;20023;-79
2021/08/09 07:38:32;;;;;;;27.25;7.88;;;16.80;99.90;;;;;;5080460;28;20016;-80
2021/08/09 07:40:57;;;;;;;40.22;9.15;;;16.80;99.90;;;;;;5088815;28;20016;-80
2021/08/09 07:43:23;;;;;;;34.03;7.05;;;17.00;99.90;;;;;;5087220;28;20020;-81
2021/08/09 07:45:49;;;;;;;23.55;6.40;;;17.10;99.90;;;;;;5083581;28;20033;-80
2021/08/09 07:48:14;;;;;;;23.23;6.90;;;17.40;99.90;;;;;;5086245;28;20062;-84
2021/08/09 07:50:40;;;;;;;29.27;6.80;;;17.40;99.90;;;;;;5086896;28;20035;-81
2021/08/09 07:53:07;;;;;;;25.25;6.10;;;17.20;99.90;;;;;;5086773;28;20024;-80
2021/08/09 07:55:33;;;;;;;17.10;5.80;;;17.10;99.90;;;;;;5086038;28;20028;-83
2021/08/09 07:57:58;;;;;;;35.60;6.78;;;16.90;99.90;;;;;;5084368;28;20035;-81
2021/08/09 08:00:24;;;;;;;24.05;6.47;;;17.00;99.90;;;;;;5088526;28;20027;-79
2021/08/09 08:02:50;;;;;;;28.60;6.65;;;17.00;99.90;;;;;;5086660;28;20020;-80
2021/08/09 08:05:15;;;;;;;32.17;6.95;;;17.00;99.90;;;;;;5087631;28;20031;-79
2021/08/09 08:07:41;;;;;;;24.60;6.97;;;17.00;99.90;;;;;;5086851;28;20024;-78
2021/08/09 08:10:07;;;;;;;23.15;7.25;;;17.00;99.90;;;;;;5087978;28;20035;-78
2021/08/09 08:12:33;;;;;;;27.52;7.20;;;17.10;99.90;;;;;;5086239;28;20040;-79
2021/08/09 08:14:58;;;;;;;17.00;6.40;;;17.10;99.90;;;;;;5087643;28;20039;-79
2021/08/09 08:17:24;;;;;;;27.63;6.18;;;17.10;99.90;;;;;;5086372;28;20024;-80
2021/08/09 08:19:50;;;;;;;20.98;6.95;;;17.20;99.90;;;;;;5087399;28;20028;-79
2021/08/09 08:22:16;;;;;;;27.05;6.05;;;17.60;99.90;;;;;;5086737;28;20078;-79
2021/08/09 08:24:42;;;;;;;21.08;6.13;;;17.60;99.90;;;;;;5087310;28;20032;-82
2021/08/09 08:27:08;;;;;;;28.15;6.35;;;17.60;99.90;;;;;;5087844;28;20028;-81
2021/08/09 08:29:34;;;;;;;27.25;6.00;;;17.80;99.90;;;;;;5087932;28;20036;-81
2021/08/09 08:31:59;;;;;;;16.80;5.13;;;17.80;99.90;;;;;;5086579;28;20059;-81
2021/08/09 08:34:25;;;;;;;31.13;6.80;;;17.70;99.90;;;;;;5086725;28;20044;-80
2021/08/09 08:36:50;;;;;;;28.23;5.43;;;17.60;99.90;;;;;;5086528;28;20043;-82
2021/08/09 08:39:16;;;;;;;29.05;5.13;;;17.70;99.90;;;;;;5088964;28;20030;-80
2021/08/09 08:41:44;;;;;;;27.67;5.22;;;17.80;99.90;;;;;;5088000;28;20044;-80
2021/08/09 08:44:10;;;;;;;33.80;5.40;;;17.80;99.90;;;;;;5085908;28;20047;-81
2021/08/09 08:46:41;;;;;;;27.10;5.32;;;17.90;99.90;;;;;;5085408;28;20510;-80
2021/08/09 08:49:13;;;;;;;21.17;5.30;;;18.00;99.90;;;;;;5086408;28;20521;-80
2021/08/09 08:51:45;;;;;;;19.98;5.03;;;18.00;99.90;;;;;;5083047;28;20036;-80
2021/08/09 08:54:12;;;;;;;21.40;4.40;;;18.40;99.90;;;;;;5086207;28;20024;-80
2021/08/09 08:56:39;;;;;;;23.30;5.68;;;18.20;99.90;;;;;;5082110;28;20059;-81
2021/08/09 08:59:07;;;;;;;35.85;5.93;;;18.20;99.90;;;;;;5087442;28;20036;-82
2021/08/09 09:01:37;;;;;;;25.17;5.13;;;18.00;99.90;;;;;;5087574;28;20030;-80
2021/08/09 09:04:27;;;;;;;22.17;5.20;;;18.10;99.90;;;;;;5085483;28;20704;-80
2021/08/09 09:07:03;;;;;;;24.83;4.50;;;18.10;99.90;;;;;;5084322;28;20032;-80
2021/08/09 09:09:31;;;;;;;28.13;6.15;;;18.20;99.90;;;;;;5087115;28;20031;-81
2021/08/09 09:11:58;;;;;;;20.15;5.32;;;18.20;99.90;;;;;;5086125;28;20530;-79
2021/08/09 09:14:29;;;;;;;31.20;5.35;;;17.90;99.90;;;;;;5085796;28;20032;-83
2021/08/09 09:16:56;;;;;;;25.67;4.75;;;17.80;99.90;;;;;;5085874;28;20745;-79
2021/08/09 09:19:39;;;;;;;24.63;5.20;;;17.80;99.90;;;;;;5085921;28;20093;-81
2021/08/09 09:22:08;;;;;;;27.65;5.93;;;18.00;99.90;;;;;;5084666;28;20028;-81
2021/08/09 09:24:36;;;;;;;26.58;5.88;;;18.10;99.90;;;;;;5085920;28;20035;-85
2021/08/09 09:27:05;;;;;;;23.92;6.25;;;18.50;99.90;;;;;;5085831;28;20451;-82
2021/08/09 09:29:39;;;;;;;21.55;5.57;;;18.80;99.90;;;;;;5088052;28;20020;-82
2021/08/09 09:32:19;;;;;;;18.35;5.32;;;18.80;99.90;;;;;;5086319;28;20119;-81
2021/08/09 09:34:47;;;;;;;20.25;4.97;;;18.80;99.90;;;;;;5079151;28;20024;-82
2021/08/09 09:37:26;;;;;;;24.85;6.35;;;18.90;99.90;;;;;;5086488;28;20107;-81
2021/08/09 09:39:52;;;;;;;24.65;5.95;;;19.20;99.90;;;;;;5086241;28;20028;-82
2021/08/09 09:42:18;;;;;;;17.73;4.95;;;19.00;99.90;;;;;;5085873;28;20138;-81
2021/08/09 09:44:44;;;;;;;29.75;5.78;;;19.00;99.90;;;;;;5085555;28;20047;-81
2021/08/09 09:47:27;;;;;;;22.05;6.65;;;19.00;99.90;;;;;;5086647;28;20067;-81
2021/08/09 09:49:55;;;;;;;26.55;6.47;;;19.40;99.90;;;;;;5086635;28;20024;-81
2021/08/09 09:52:44;;;;;;;28.40;5.55;;;19.20;99.90;;;;;;5085328;28;20035;-81
2021/08/09 09:55:13;;;;;;;25.65;5.15;;;19.40;99.90;;;;;;5080385;28;20633;-82
2021/08/09 09:57:40;;;;;;;20.67;4.75;;;19.20;99.90;;;;;;5081012;28;20032;-82
2021/08/09 10:00:09;;;;;;;19.70;6.72;;;19.30;99.90;;;;;;5085896;28;20058;-81
2021/08/09 10:02:34;;;;;;;21.98;5.95;;;19.50;99.90;;;;;;5085640;28;20024;-80
2021/08/09 10:05:01;;;;;;;21.30;5.25;;;19.60;99.90;;;;;;5087600;28;20039;-81
2021/08/09 10:07:29;;;;;;;19.80;4.45;;;19.80;99.90;;;;;;5088506;28;20119;-80
2021/08/09 10:09:55;;;;;;;19.88;5.20;;;19.80;99.90;;;;;;5089933;28;20035;-80
2021/08/09 10:12:25;;;;;;;19.85;4.68;;;19.50;99.90;;;;;;5090527;28;20078;-80
2021/08/09 10:14:54;;;;;;;20.30;5.50;;;19.70;99.90;;;;;;5088840;28;20555;-81
2021/08/09 10:17:21;;;;;;;24.27;5.63;;;20.10;99.90;;;;;;5088569;28;20036;-83
2021/08/09 10:19:49;;;;;;;14.38;6.15;;;19.80;99.90;;;;;;5089340;28;20028;-81
2021/08/09 10:22:19;;;;;;;25.60;5.53;;;19.80;99.90;;;;;;5088586;28;20035;-82
2021/08/09 10:24:46;;;;;;;16.15;4.65;;;19.90;99.90;;;;;;5092992;28;20411;-81
2021/08/09 10:27:12;;;;;;;18.85;5.55;;;19.70;99.90;;;;;;5093188;28;20046;-82
2021/08/09 10:30:10;;;;;;;16.40;5.07;;;19.40;99.90;;;;;;5094131;28;20540;-81
2021/08/09 10:32:45;;;;;;;22.75;5.10;;;19.30;99.90;;;;;;5093169;28;20052;-81
2021/08/09 10:35:29;;;;;;;15.60;4.45;;;19.10;99.90;;;;;;5092639;28;20032;-81
2021/08/09 10:38:16;;;;;;;18.73;4.60;;;18.90;99.90;;;;;;5092768;28;20032;-82
2021/08/09 10:40:43;;;;;;;17.42;5.43;;;18.80;99.90;;;;;;5092633;28;20396;-81
2021/08/09 10:43:10;;;;;;;19.63;5.22;;;19.10;99.90;;;;;;5089755;28;20085;-84
2021/08/09 10:45:45;;;;;;;20.50;5.30;;;19.30;99.90;;;;;;5089064;28;20028;-82
2021/08/09 10:48:13;;;;;;;20.33;4.88;;;19.30;99.90;;;;;;5088986;28;20499;-83
2021/08/09 10:50:41;;;;;;;23.90;4.78;;;19.40;99.90;;;;;;5087356;28;20038;-82
2021/08/09 10:53:33;;;;;;;27.25;4.85;;;19.40;99.90;;;;;;5089500;28;20058;-82
2021/08/09 10:55:59;;;;;;;26.02;5.95;;;19.20;99.90;;;;;;5089054;28;20024;-80
2021/08/09 10:58:43;;;;;;;25.10;5.50;;;19.00;99.90;;;;;;5087454;28;20043;-81
2021/08/09 11:01:11;;;;;;;19.13;4.65;;;18.70;99.90;;;;;;5086492;28;20590;-81
2021/08/09 11:04:02;;;;;;;25.55;5.78;;;18.70;99.90;;;;;;5082251;28;20040;-80
2021/08/09 11:06:53;;;;;;;30.63;6.15;;;18.50;99.90;;;;;;5090484;28;20027;-80
2021/08/09 11:09:31;;;;;;;25.73;5.95;;;18.50;99.90;;;;;;5088320;28;20149;-80
2021/08/09 11:12:15;;;;;;;31.83;5.80;;;18.60;99.90;;;;;;5088829;28;20024;-80
2021/08/09 11:14:59;;;;;;;;;;;18.90;99.90;;;;;;5083108;28;20465;-82
2021/08/09 11:17:25;;;;;;;28.55;5.28;;;19.10;99.90;;;;;;5088284;28;19914;-82
2021/08/09 11:19:51;;;;;;;25.15;5.60;;;19.30;99.90;;;;;;5089748;28;20099;-81
2021/08/09 11:22:20;;;;;;;30.38;5.40;;;19.30;99.90;;;;;;5088833;28;20456;-82
2021/08/09 11:24:46;;;;;;;18.70;4.80;;;19.10;99.90;;;;;;5089602;28;20750;-81
2021/08/09 11:27:12;;;;;;;20.90;5.28;;;19.20;99.90;;;;;;5090018;28;20039;-82
2021/08/09 11:29:51;;;;;;;18.60;4.82;;;19.30;99.90;;;;;;5088440;28;20024;-82
2021/08/09 11:32:42;;;;;;;19.58;5.57;;;19.50;99.90;;;;;;5089450;28;20506;-82
2021/08/09 11:35:09;;;;;;;28.02;5.28;;;19.40;99.90;;;;;;5089493;28;20040;-81
2021/08/09 11:37:58;;;;;;;20.50;4.82;;;19.20;99.90;;;;;;5080050;28;20040;-81
2021/08/09 11:41:00;;;;;;;23.20;4.55;;;19.40;99.90;;;;;;5071386;28;20078;-83
2021/08/09 11:43:30;;;;;;;17.45;4.20;;;19.70;99.90;;;;;;5061650;28;20045;-81
2021/08/09 11:46:03;;;;;;;19.70;5.00;;;20.10;99.90;;;;;;5071203;28;20438;-82
2021/08/09 11:48:30;;;;;;;28.98;4.75;;;20.10;99.90;;;;;;5071444;28;20120;-85
2021/08/09 11:50:59;;;;;;;19.73;3.92;;;19.80;99.90;;;;;;5073474;28;20132;-82
2021/08/09 11:53:25;;;;;;;19.92;4.18;;;19.90;99.90;;;;;;5091718;28;20067;-87
2021/08/09 11:56:03;;;;;;;21.65;4.70;;;19.80;99.90;;;;;;5091404;28;20032;-85
2021/08/09 11:58:30;;;;;;;17.67;4.22;;;20.10;99.90;;;;;;5091407;28;20082;-83
2021/08/09 12:00:56;;;;;;;20.90;5.30;;;20.00;99.90;;;;;;5091360;28;20437;-83
2021/08/09 12:03:23;;;;;;;24.65;5.90;;;20.10;99.90;;;;;;5092244;28;20068;-82
2021/08/09 12:05:48;;;;;;;28.10;5.55;;;19.50;99.90;;;;;;5090998;28;20476;-81
2021/08/09 12:08:14;;;;;;;28.05;5.40;;;19.30;99.90;;;;;;5091246;28;20035;-83
2021/08/09 12:10:40;;;;;;;18.73;5.05;;;19.10;99.90;;;;;;5092160;28;20024;-81
2021/08/09 12:13:29;;;;;;;24.50;5.45;;;18.80;99.90;;;;;;5090680;28;20091;-81
2021/08/09 12:16:14;;;;;;;16.65;4.88;;;18.80;99.90;;;;;;5092253;28;20057;-81
2021/08/09 12:18:54;;;;;;;34.67;6.40;;;18.80;99.90;;;;;;5091044;28;20024;-81
2021/08/09 12:21:21;;;;;;;16.60;4.75;;;18.80;99.90;;;;;;5091035;28;20059;-80
2021/08/09 12:23:52;;;;;;;19.65;4.18;;;18.80;99.90;;;;;;5091576;28;20028;-80
2021/08/09 12:26:28;;;;;;;26.33;4.97;;;18.90;99.90;;;;;;5091003;28;20024;-80
2021/08/09 12:28:56;;;;;;;18.42;4.72;;;18.90;99.90;;;;;;5091585;28;20023;-79
2021/08/09 12:31:39;;;;;;;31.27;5.88;;;18.90;99.90;;;;;;5092058;28;20024;-80
2021/08/09 12:34:08;;;;;;;25.70;5.03;;;18.90;99.90;;;;;;5091398;28;20496;-79
2021/08/09 12:36:33;;;;;;;22.80;5.07;;;18.80;99.90;;;;;;5090732;28;20039;-79
2021/08/09 12:38:59;;;;;;;18.15;5.07;;;18.90;99.90;;;;;;5092106;28;20680;-80
2021/08/09 12:41:30;;;;;;;28.08;4.90;;;18.70;99.90;;;;;;5090816;28;20387;-80
2021/08/09 12:43:58;;;;;;;23.17;5.05;;;19.00;99.90;;;;;;5091234;28;20027;-79